createdAt,value
2023-01-18T00:01:04.897Z,96510.75
2023-01-18T00:02:07.195Z,96504.66
2023-01-18T00:03:14.130Z,96507.25
2023-01-18T00:04:16.278Z,96502.16
2023-01-18T00:05:19.685Z,96503.97
2023-01-18T00:06:22.026Z,96510.78
2023-01-18T00:07:24.326Z,96508.56
2023-01-18T00:08:26.580Z,96510.09
2023-01-18T00:09:28.994Z,96507.38
2023-01-18T00:10:31.303Z,96511.13
2023-01-18T00:11:33.623Z,96521.44
2023-01-18T00:12:35.884Z,96511.63
2023-01-18T00:13:38.994Z,96515.91
2023-01-18T00:14:41.324Z,96510.50
2023-01-18T00:15:43.523Z,96510.97
2023-01-18T00:16:45.759Z,96508.25
2023-01-18T00:17:51.407Z,96510.50
2023-01-18T00:18:56.032Z,96516.06
2023-01-18T00:19:58.345Z,96518.72
2023-01-18T00:21:08.254Z,96515.13
2023-01-18T00:22:10.652Z,96504.81
2023-01-18T00:23:12.853Z,96514.22
2023-01-18T00:24:15.177Z,96512.03
2023-01-18T00:25:22.174Z,96511.75
2023-01-18T00:26:25.577Z,96511.22
2023-01-18T00:27:28.317Z,96512.50
2023-01-18T00:28:32.266Z,96506.28
2023-01-18T00:29:34.808Z,96506.78
2023-01-18T00:30:37.020Z,96502.06
2023-01-18T00:31:40.060Z,96503.75
2023-01-18T00:32:42.560Z,96491.59
2023-01-18T00:33:46.002Z,96487.13
2023-01-18T00:34:50.402Z,96497.16
2023-01-18T00:35:57.340Z,96503.00
2023-01-18T00:36:59.642Z,96495.84
2023-01-18T00:38:01.954Z,96494.41
2023-01-18T00:39:04.422Z,96499.47
2023-01-18T00:40:09.245Z,96498.34
2023-01-18T00:41:11.458Z,96505.03
2023-01-18T00:42:32.196Z,96501.16
2023-01-18T00:43:40.714Z,96496.50
2023-01-18T00:44:43.019Z,96501.81
2023-01-18T00:45:45.348Z,96503.59
2023-01-18T00:46:49.930Z,96501.75
2023-01-18T00:47:52.610Z,96500.69
2023-01-18T00:48:55.468Z,96504.97
2023-01-18T00:49:57.636Z,96495.69
2023-01-18T00:51:00.100Z,96500.44
2023-01-18T00:52:02.347Z,96494.94
2023-01-18T00:53:05.045Z,96507.22
2023-01-18T00:54:07.247Z,96502.44
2023-01-18T00:55:09.616Z,96500.84
2023-01-18T00:56:15.074Z,96502.59
2023-01-18T00:57:17.528Z,96499.00
2023-01-18T00:58:19.946Z,96499.25
2023-01-18T00:59:22.230Z,96498.72
2023-01-18T01:00:27.152Z,96499.88
2023-01-18T01:01:29.609Z,96503.44
2023-01-18T01:02:31.936Z,96511.34
2023-01-18T01:03:54.618Z,96500.25
2023-01-18T01:05:26.470Z,96508.09
2023-01-18T01:06:45.427Z,96508.91
2023-01-18T01:07:49.591Z,96500.44
2023-01-18T01:08:51.824Z,96500.41
2023-01-18T01:09:54.087Z,96506.63
2023-01-18T01:11:06.172Z,96515.31
2023-01-18T01:12:27.287Z,96504.38
2023-01-18T01:13:48.478Z,96512.56
2023-01-18T01:15:09.111Z,96514.00
2023-01-18T01:16:31.304Z,96514.75
2023-01-18T01:17:55.365Z,96512.00
2023-01-18T01:19:16.048Z,96513.69
2023-01-18T01:20:37.203Z,96517.25
2023-01-18T01:21:59.229Z,96518.09
2023-01-18T01:23:30.553Z,96521.13
2023-01-18T01:24:51.684Z,96515.75
2023-01-18T01:26:10.689Z,96518.22
2023-01-18T01:27:14.032Z,96519.41
2023-01-18T01:28:16.522Z,96511.47
2023-01-18T01:29:18.863Z,96522.31
2023-01-18T01:30:21.080Z,96515.25
2023-01-18T01:31:23.287Z,96520.81
2023-01-18T01:32:25.571Z,96518.00
2023-01-18T01:33:29.720Z,96525.91
2023-01-18T01:34:32.539Z,96526.41
2023-01-18T01:35:34.791Z,96536.94
2023-01-18T01:36:37.095Z,96524.75
2023-01-18T01:37:39.319Z,96527.97
2023-01-18T01:38:41.803Z,96527.13
2023-01-18T01:39:46.474Z,96518.34
2023-01-18T01:41:08.364Z,96526.19
2023-01-18T01:42:11.647Z,96528.47
2023-01-18T01:43:14.175Z,96521.78
2023-01-18T01:44:24.401Z,96531.81
2023-01-18T01:45:30.588Z,96522.53
2023-01-18T01:46:46.368Z,96524.75
2023-01-18T01:47:48.770Z,96534.03
2023-01-18T01:48:58.101Z,96539.06
2023-01-18T01:50:06.349Z,96541.78
2023-01-18T01:51:08.952Z,96536.69
2023-01-18T01:52:15.364Z,96536.31
2023-01-18T01:53:17.930Z,96537.06
2023-01-18T01:54:37.278Z,96540.63
2023-01-18T01:55:40.759Z,96544.81
2023-01-18T01:56:45.946Z,96543.75
2023-01-18T01:57:56.977Z,96545.16
2023-01-18T01:59:01.234Z,96541.34
2023-01-18T02:02:09.583Z,96553.41
2023-01-18T02:03:18.592Z,96560.59
2023-01-18T02:04:20.915Z,96559.75
2023-01-18T02:05:24.052Z,96561.47
2023-01-18T02:06:31.683Z,96556.41
2023-01-18T02:07:34.831Z,96563.25
2023-01-18T02:08:37.495Z,96561.41
2023-01-18T02:09:40.693Z,96568.94
2023-01-18T02:10:43.179Z,96569.72
2023-01-18T02:11:45.468Z,96567.72
2023-01-18T02:12:49.250Z,96564.84
2023-01-18T02:13:52.188Z,96574.41
2023-01-18T02:14:56.866Z,96572.09
2023-01-18T02:16:17.599Z,96578.31
2023-01-18T02:17:54.022Z,96570.94
2023-01-18T02:19:19.837Z,96571.94
2023-01-18T02:20:46.687Z,96571.47
2023-01-18T02:22:04.464Z,96569.88
2023-01-18T02:23:34.814Z,96573.91
2023-01-18T02:24:56.867Z,96580.84
2023-01-18T02:26:43.352Z,96576.47
2023-01-18T02:28:23.984Z,96582.97
2023-01-18T02:29:33.639Z,96585.19
2023-01-18T02:30:45.860Z,96580.16
2023-01-18T02:31:56.814Z,96583.47
2023-01-18T02:33:10.749Z,96589.66
2023-01-18T02:34:35.807Z,96588.91
2023-01-18T02:35:40.705Z,96602.88
2023-01-18T02:37:26.379Z,96596.66
2023-01-18T02:38:39.649Z,96592.56
2023-01-18T02:39:52.864Z,96599.31
2023-01-18T02:41:10.793Z,96600.53
2023-01-18T02:42:41.077Z,96596.06
2023-01-18T02:44:03.617Z,96600.31
2023-01-18T02:45:41.623Z,96600.38
2023-01-18T02:46:44.827Z,96602.88
2023-01-18T02:47:48.172Z,96609.66
2023-01-18T02:48:51.001Z,96602.44
2023-01-18T02:49:53.634Z,96607.53
2023-01-18T02:50:55.810Z,96612.97
2023-01-18T02:52:08.314Z,96604.34
2023-01-18T02:53:14.556Z,96608.44
2023-01-18T02:54:24.285Z,96612.38
2023-01-18T02:55:29.491Z,96616.63
2023-01-18T02:56:41.114Z,96614.16
2023-01-18T02:57:43.658Z,96614.69
2023-01-18T02:58:51.421Z,96614.06
2023-01-18T02:59:55.439Z,96615.03
2023-01-18T03:01:22.421Z,96611.72
2023-01-18T03:02:29.180Z,96616.94
2023-01-18T03:03:31.901Z,96617.88
2023-01-18T03:04:39.535Z,96621.41
2023-01-18T03:05:44.619Z,96615.41
2023-01-18T03:06:51.478Z,96625.84
2023-01-18T03:08:09.561Z,96622.25
2023-01-18T03:09:18.301Z,96619.53
2023-01-18T03:10:25.993Z,96621.13
2023-01-18T03:11:52.584Z,96621.34
2023-01-18T03:13:03.701Z,96617.69
2023-01-18T03:14:36.375Z,96618.16
2023-01-18T03:15:51.809Z,96611.91
2023-01-18T03:17:19.953Z,96613.59
2023-01-18T03:18:38.454Z,96619.53
2023-01-18T03:20:06.824Z,96619.06
2023-01-18T03:21:09.155Z,96625.09
2023-01-18T03:22:11.452Z,96617.69
2023-01-18T03:23:38.400Z,96628.81
2023-01-18T03:24:41.550Z,96623.50
2023-01-18T03:25:46.704Z,96630.78
2023-01-18T03:26:53.402Z,96627.81
2023-01-18T03:28:17.155Z,96630.78
2023-01-18T03:29:39.536Z,96636.63
2023-01-18T03:31:01.608Z,96630.41
2023-01-18T03:32:35.962Z,96636.56
2023-01-18T03:33:46.556Z,96638.44
2023-01-18T03:34:56.842Z,96638.81
2023-01-18T03:36:00.633Z,96642.88
2023-01-18T03:37:08.183Z,96648.56
2023-01-18T03:38:10.849Z,96642.66
2023-01-18T03:39:24.486Z,96657.31
2023-01-18T03:40:30.198Z,96647.63
2023-01-18T03:41:37.932Z,96654.34
2023-01-18T03:42:44.728Z,96651.69
2023-01-18T03:43:49.955Z,96656.41
2023-01-18T03:45:08.552Z,96656.84
2023-01-18T03:46:14.313Z,96659.56
2023-01-18T03:47:17.112Z,96656.25
2023-01-18T03:48:19.709Z,96651.34
2023-01-18T03:49:22.172Z,96660.38
2023-01-18T03:50:32.415Z,96657.72
2023-01-18T03:51:53.736Z,96659.06
2023-01-18T03:52:59.490Z,96654.59
2023-01-18T03:54:11.208Z,96665.06
2023-01-18T03:55:26.827Z,96658.09
2023-01-18T03:56:38.014Z,96658.69
2023-01-18T03:57:45.592Z,96652.66
2023-01-18T03:58:51.421Z,96656.25
2023-01-18T03:59:54.053Z,96660.59
2023-01-18T04:00:56.782Z,96664.91
2023-01-18T04:01:59.075Z,96661.13
2023-01-18T04:03:01.861Z,96667.97
2023-01-18T04:04:04.355Z,96668.34
2023-01-18T04:05:07.287Z,96673.78
2023-01-18T04:06:09.705Z,96664.31
2023-01-18T04:07:11.912Z,96669.25
2023-01-18T04:08:14.664Z,96670.09
2023-01-18T04:09:17.201Z,96674.13
2023-01-18T04:10:19.501Z,96677.69
2023-01-18T04:11:21.840Z,96679.22
2023-01-18T04:12:24.291Z,96685.88
2023-01-18T04:13:26.543Z,96685.03
2023-01-18T04:14:29.058Z,96686.44
2023-01-18T04:15:31.413Z,96687.19
2023-01-18T04:16:33.677Z,96691.53
2023-01-18T04:17:36.076Z,96690.00
2023-01-18T04:18:38.467Z,96687.19
2023-01-18T04:19:40.678Z,96694.81
2023-01-18T04:20:43.099Z,96695.78
2023-01-18T04:21:45.344Z,96695.34
2023-01-18T04:22:54.528Z,96696.41
2023-01-18T04:23:56.896Z,96701.81
2023-01-18T04:24:59.081Z,96698.63
2023-01-18T04:26:01.240Z,96697.44
2023-01-18T04:27:04.207Z,96703.66
2023-01-18T04:28:06.810Z,96708.69
2023-01-18T04:29:09.059Z,96697.59
2023-01-18T04:30:11.598Z,96709.63
2023-01-18T04:31:14.045Z,96709.69
2023-01-18T04:32:16.534Z,96706.97
2023-01-18T04:33:20.574Z,96712.13
2023-01-18T04:34:23.041Z,96710.31
2023-01-18T04:35:25.476Z,96716.94
2023-01-18T04:36:28.361Z,96712.97
2023-01-18T04:37:33.969Z,96715.34
2023-01-18T04:38:36.433Z,96720.78
2023-01-18T04:39:38.731Z,96711.97
2023-01-18T04:40:41.255Z,96722.06
2023-01-18T04:41:44.872Z,96725.25
2023-01-18T04:42:56.548Z,96727.72
2023-01-18T04:43:58.898Z,96727.06
2023-01-18T04:45:01.254Z,96728.34
2023-01-18T04:46:03.719Z,96738.72
2023-01-18T04:47:06.039Z,96732.94
2023-01-18T04:48:08.412Z,96737.38
2023-01-18T04:49:15.234Z,96733.75
2023-01-18T04:50:17.476Z,96739.09
2023-01-18T04:51:19.821Z,96740.69
2023-01-18T04:52:22.069Z,96737.81
2023-01-18T04:53:24.328Z,96731.19
2023-01-18T04:54:28.335Z,96741.25
2023-01-18T04:55:30.798Z,96743.91
2023-01-18T04:56:33.059Z,96746.19
2023-01-18T04:57:35.285Z,96748.09
2023-01-18T04:58:38.187Z,96740.25
2023-01-18T04:59:43.147Z,96745.56
2023-01-18T05:00:45.579Z,96749.56
2023-01-18T05:01:47.886Z,96747.22
2023-01-18T05:02:50.705Z,96753.88
2023-01-18T05:03:53.829Z,96751.53
2023-01-18T05:04:56.322Z,96752.69
2023-01-18T05:05:58.584Z,96760.56
2023-01-18T05:07:02.368Z,96761.34
2023-01-18T05:08:04.603Z,96761.28
2023-01-18T05:09:06.834Z,96765.59
2023-01-18T05:10:09.865Z,96762.03
2023-01-18T05:11:14.729Z,96772.84
2023-01-18T05:12:17.219Z,96768.25
2023-01-18T05:13:19.571Z,96770.78
2023-01-18T05:14:21.758Z,96775.16
2023-01-18T05:15:24.002Z,96778.03
2023-01-18T05:16:26.312Z,96775.44
2023-01-18T05:17:30.292Z,96783.94
2023-01-18T05:18:32.514Z,96781.59
2023-01-18T05:19:34.824Z,96783.38
2023-01-18T05:20:37.037Z,96784.97
2023-01-18T05:21:39.570Z,96793.31
2023-01-18T05:22:41.779Z,96792.47
2023-01-18T05:23:44.343Z,96795.31
2023-01-18T05:24:48.217Z,96798.69
2023-01-18T05:25:55.037Z,96802.19
2023-01-18T05:26:57.319Z,96799.38
2023-01-18T05:28:00.206Z,96797.56
2023-01-18T05:29:02.471Z,96807.97
2023-01-18T05:30:06.891Z,96805.03
2023-01-18T05:31:09.535Z,96818.31
2023-01-18T05:32:11.805Z,96818.31
2023-01-18T05:33:14.010Z,96810.88
2023-01-18T05:34:16.430Z,96826.56
2023-01-18T05:35:18.677Z,96825.63
2023-01-18T05:36:20.911Z,96822.38
2023-01-18T05:37:23.156Z,96827.78
2023-01-18T05:38:25.454Z,96829.84
2023-01-18T05:39:27.846Z,96835.75
2023-01-18T05:40:30.179Z,96837.94
2023-01-18T05:41:32.477Z,96843.69
2023-01-18T05:42:34.708Z,96848.47
2023-01-18T05:43:38.193Z,96854.59
2023-01-18T05:44:40.925Z,96855.13
2023-01-18T05:45:43.425Z,96854.59
2023-01-18T05:46:45.677Z,96847.94
2023-01-18T05:47:47.971Z,96862.75
2023-01-18T05:48:50.207Z,96859.56
2023-01-18T05:49:52.553Z,96865.56
2023-01-18T05:50:54.938Z,96863.13
2023-01-18T05:51:57.176Z,96857.00
2023-01-18T05:53:00.731Z,96869.50
2023-01-18T05:54:03.376Z,96870.72
2023-01-18T05:55:06.330Z,96876.81
2023-01-18T05:56:09.462Z,96876.22
2023-01-18T05:57:11.771Z,96881.84
2023-01-18T05:58:14.022Z,96870.03
2023-01-18T05:59:16.321Z,96880.59
2023-01-18T06:00:19.202Z,96877.06
2023-01-18T06:01:21.472Z,96876.16
2023-01-18T06:02:26.984Z,96876.75
2023-01-18T06:03:29.280Z,96887.06
2023-01-18T06:04:31.575Z,96886.16
2023-01-18T06:05:35.065Z,96886.66
2023-01-18T06:06:37.534Z,96895.09
2023-01-18T06:07:42.384Z,96892.06
2023-01-18T06:08:44.756Z,96895.09
2023-01-18T06:09:49.657Z,96897.56
2023-01-18T06:10:58.034Z,96899.28
2023-01-18T06:12:00.262Z,96900.63
2023-01-18T06:13:02.867Z,96904.59
2023-01-18T06:14:05.432Z,96902.53
2023-01-18T06:15:13.909Z,96903.88
2023-01-18T06:16:22.032Z,96915.44
2023-01-18T06:17:33.563Z,96914.44
2023-01-18T06:18:38.701Z,96916.97
2023-01-18T06:19:40.875Z,96918.09
2023-01-18T06:20:43.639Z,96923.91
2023-01-18T06:21:48.725Z,96929.63
2023-01-18T06:22:50.974Z,96923.69
2023-01-18T06:23:55.356Z,96930.75
2023-01-18T06:24:57.583Z,96933.19
2023-01-18T06:26:00.376Z,96939.16
2023-01-18T06:27:05.325Z,96935.94
2023-01-18T06:28:07.961Z,96938.03
2023-01-18T06:29:10.160Z,96933.81
2023-01-18T06:30:13.365Z,96941.81
2023-01-18T06:31:16.088Z,96952.06
2023-01-18T06:32:18.274Z,96939.59
2023-01-18T06:33:20.900Z,96954.13
2023-01-18T06:34:23.157Z,96954.22
2023-01-18T06:35:25.445Z,96944.31
2023-01-18T06:36:29.771Z,96963.50
2023-01-18T06:37:31.995Z,96946.53
2023-01-18T06:38:34.452Z,96960.25
2023-01-18T06:39:36.756Z,96960.84
2023-01-18T06:40:38.983Z,96967.72
2023-01-18T06:41:41.194Z,96958.66
2023-01-18T06:42:43.584Z,96964.22
2023-01-18T06:43:45.829Z,96963.38
2023-01-18T06:44:48.025Z,96970.19
2023-01-18T06:45:55.401Z,96970.66
2023-01-18T06:46:57.688Z,96965.34
2023-01-18T06:47:59.895Z,96970.50
2023-01-18T06:49:02.104Z,96977.41
2023-01-18T06:50:04.719Z,96975.53
2023-01-18T06:51:06.927Z,96979.06
2023-01-18T06:52:09.077Z,96983.63
2023-01-18T06:53:11.252Z,96984.47
2023-01-18T06:54:15.641Z,96986.53
2023-01-18T06:55:19.729Z,96990.38
2023-01-18T06:56:22.020Z,96991.81
2023-01-18T06:57:24.272Z,96989.13
2023-01-18T06:58:27.157Z,96995.28
2023-01-18T06:59:29.312Z,97003.84
2023-01-18T07:00:31.536Z,97000.06
2023-01-18T07:01:33.934Z,96995.28
2023-01-18T07:02:36.514Z,97003.50
2023-01-18T07:03:38.889Z,97004.25
2023-01-18T07:04:44.143Z,97006.63
2023-01-18T07:05:46.681Z,97007.41
2023-01-18T07:06:49.162Z,97008.44
2023-01-18T07:07:51.404Z,97011.81
2023-01-18T07:08:53.833Z,96995.69
2023-01-18T07:09:56.192Z,97004.13
2023-01-18T07:10:59.519Z,97008.19
2023-01-18T07:12:01.725Z,97015.13
2023-01-18T07:13:03.984Z,97012.25
2023-01-18T07:14:06.262Z,97021.00
2023-01-18T07:15:20.823Z,97020.97
2023-01-18T07:16:24.164Z,97017.69
2023-01-18T07:17:26.460Z,97022.28
2023-01-18T07:18:30.513Z,97030.69
2023-01-18T07:19:32.805Z,97031.13
2023-01-18T07:20:34.962Z,97028.84
2023-01-18T07:21:37.195Z,97030.56
2023-01-18T07:22:39.363Z,97034.56
2023-01-18T07:23:42.951Z,97033.69
2023-01-18T07:24:46.264Z,97037.25
2023-01-18T07:25:48.481Z,97044.09
2023-01-18T07:26:50.715Z,97044.75
2023-01-18T07:27:53.168Z,97047.56
2023-01-18T07:28:56.140Z,97051.38
2023-01-18T07:29:58.590Z,97049.84
2023-01-18T07:31:01.480Z,97046.59
2023-01-18T07:32:04.037Z,97054.19
2023-01-18T07:33:07.762Z,97055.88
2023-01-18T07:34:10.984Z,97054.69
2023-01-18T07:35:13.181Z,97051.69
2023-01-18T07:36:15.448Z,97050.81
2023-01-18T07:37:17.693Z,97059.16
2023-01-18T07:38:20.864Z,97062.59
2023-01-18T07:39:23.186Z,97062.44
2023-01-18T07:40:25.404Z,97062.09
2023-01-18T07:41:28.913Z,97067.25
2023-01-18T07:42:32.458Z,97065.44
2023-01-18T07:43:37.356Z,97070.19
2023-01-18T07:44:39.620Z,97071.81
2023-01-18T07:45:43.291Z,97070.78
2023-01-18T07:46:45.682Z,97074.28
2023-01-18T07:47:48.016Z,97073.59
2023-01-18T07:48:50.205Z,97070.16
2023-01-18T07:49:52.449Z,97081.22
2023-01-18T07:50:56.507Z,97074.91
2023-01-18T07:51:58.715Z,97080.56
2023-01-18T07:53:09.168Z,97084.63
2023-01-18T07:54:11.506Z,97077.44
2023-01-18T07:55:13.952Z,97078.31
2023-01-18T07:56:18.146Z,97087.78
2023-01-18T07:57:20.477Z,97083.00
2023-01-18T07:58:23.868Z,97086.28
2023-01-18T07:59:27.740Z,97080.03
2023-01-18T08:00:29.939Z,97088.25
2023-01-18T08:01:32.350Z,97090.16
2023-01-18T08:02:35.189Z,97088.72
2023-01-18T08:03:37.892Z,97084.47
2023-01-18T08:04:40.491Z,97086.94
2023-01-18T08:05:44.048Z,97088.38
2023-01-18T08:06:46.598Z,97090.81
2023-01-18T08:07:49.806Z,97094.72
2023-01-18T08:08:52.156Z,97096.78
2023-01-18T08:09:54.436Z,97113.88
2023-01-18T08:10:58.272Z,97106.72
2023-01-18T08:12:01.192Z,97115.88
2023-01-18T08:13:04.165Z,97114.38
2023-01-18T08:14:06.396Z,97113.47
2023-01-18T08:15:09.014Z,97109.75
2023-01-18T08:16:12.223Z,97124.66
2023-01-18T08:17:14.470Z,97124.75
2023-01-18T08:18:16.696Z,97123.47
2023-01-18T08:19:19.384Z,97127.06
2023-01-18T08:20:22.195Z,97129.75
2023-01-18T08:21:24.806Z,97132.50
2023-01-18T08:22:27.411Z,97132.94
2023-01-18T08:23:29.650Z,97129.09
2023-01-18T08:24:31.846Z,97141.00
2023-01-18T08:25:34.070Z,97137.63
2023-01-18T08:26:36.285Z,97142.25
2023-01-18T08:27:38.835Z,97150.41
2023-01-18T08:28:41.658Z,97150.44
2023-01-18T08:29:45.904Z,97141.47
2023-01-18T08:30:48.854Z,97149.78
2023-01-18T08:31:54.737Z,97158.41
2023-01-18T08:32:59.726Z,97166.41
2023-01-18T08:34:02.368Z,97163.38
2023-01-18T08:35:04.767Z,97163.91
2023-01-18T08:36:10.443Z,97169.28
2023-01-18T08:37:12.622Z,97170.13
2023-01-18T08:38:16.151Z,97167.56
2023-01-18T08:39:18.388Z,97160.81
2023-01-18T08:40:21.922Z,97167.78
2023-01-18T08:41:28.482Z,97167.03
2023-01-18T08:42:30.823Z,97169.56
2023-01-18T08:43:33.288Z,97176.38
2023-01-18T08:44:35.475Z,97171.69
2023-01-18T08:45:38.371Z,97177.03
2023-01-18T08:46:40.852Z,97171.41
2023-01-18T08:47:43.182Z,97184.84
2023-01-18T08:48:45.555Z,97182.03
2023-01-18T08:49:47.812Z,97189.38
2023-01-18T08:50:51.710Z,97189.19
2023-01-18T08:51:54.091Z,97191.41
2023-01-18T08:52:57.193Z,97194.81
2023-01-18T08:53:59.848Z,97189.81
2023-01-18T08:55:06.194Z,97198.16
2023-01-18T08:56:08.972Z,97198.44
2023-01-18T08:57:11.334Z,97197.25
2023-01-18T08:58:13.716Z,97200.63
2023-01-18T08:59:15.986Z,97198.22
2023-01-18T09:00:18.590Z,97199.41
2023-01-18T09:01:23.233Z,97201.28
2023-01-18T09:02:26.148Z,97203.22
2023-01-18T09:03:28.403Z,97209.16
2023-01-18T09:04:30.538Z,97211.44
2023-01-18T09:05:34.790Z,97212.09
2023-01-18T09:06:37.039Z,97214.69
2023-01-18T09:07:39.339Z,97208.81
2023-01-18T09:08:41.618Z,97229.00
2023-01-18T09:09:44.842Z,97218.94
2023-01-18T09:10:46.992Z,97220.22
2023-01-18T09:11:52.380Z,97225.34
2023-01-18T09:12:55.584Z,97214.53
2023-01-18T09:14:00.986Z,97233.22
2023-01-18T09:15:04.171Z,97227.72
2023-01-18T09:16:10.192Z,97242.22
2023-01-18T09:17:14.193Z,97241.34
2023-01-18T09:18:16.450Z,97242.03
2023-01-18T09:19:18.657Z,97242.34
2023-01-18T09:20:20.910Z,97253.34
2023-01-18T09:21:23.648Z,97258.16
2023-01-18T09:22:25.833Z,97255.81
2023-01-18T09:23:27.979Z,97252.53
2023-01-18T09:24:30.147Z,97254.88
2023-01-18T09:25:32.427Z,97259.22
2023-01-18T09:26:34.871Z,97265.53
2023-01-18T09:27:37.118Z,97263.34
2023-01-18T09:28:39.601Z,97261.53
2023-01-18T09:29:41.994Z,97267.06
2023-01-18T09:30:44.385Z,97270.38
2023-01-18T09:31:46.734Z,97261.66
2023-01-18T09:32:49.050Z,97267.41
2023-01-18T09:33:53.522Z,97267.28
2023-01-18T09:34:56.414Z,97268.44
2023-01-18T09:36:02.628Z,97274.72
2023-01-18T09:37:04.796Z,97278.91
2023-01-18T09:38:09.820Z,97286.91
2023-01-18T09:39:11.984Z,97276.97
2023-01-18T09:40:17.458Z,97279.81
2023-01-18T09:41:30.154Z,97283.94
2023-01-18T09:42:38.948Z,97291.19
2023-01-18T09:43:49.326Z,97284.31
2023-01-18T09:44:58.859Z,97286.03
2023-01-18T09:46:01.937Z,97298.97
2023-01-18T09:47:18.269Z,97302.94
2023-01-18T09:48:29.555Z,97295.22
2023-01-18T09:49:43.956Z,97298.94
2023-01-18T09:50:46.163Z,97300.19
2023-01-18T09:52:26.197Z,97305.31
2023-01-18T09:54:19.397Z,97311.22
2023-01-18T09:55:48.135Z,97307.91
2023-01-18T09:57:09.023Z,97304.09
2023-01-18T09:58:42.613Z,97301.94
2023-01-18T10:00:04.795Z,97314.16
2023-01-18T10:01:16.143Z,97301.88
2023-01-18T10:02:40.307Z,97309.06
2023-01-18T10:03:48.187Z,97316.47
2023-01-18T10:04:58.895Z,97303.56
2023-01-18T10:06:10.496Z,97313.47
2023-01-18T10:07:16.847Z,97311.97
2023-01-18T10:08:25.596Z,97321.09
2023-01-18T10:09:41.931Z,97312.81
2023-01-18T10:10:55.922Z,97318.38
2023-01-18T10:12:01.158Z,97313.72
2023-01-18T10:13:08.391Z,97332.81
2023-01-18T10:14:45.256Z,97328.41
2023-01-18T10:15:48.155Z,97319.84
2023-01-18T10:17:00.151Z,97335.78
2023-01-18T10:18:02.437Z,97333.31
2023-01-18T10:19:15.330Z,97337.59
2023-01-18T10:20:23.438Z,97336.47
2023-01-18T10:21:41.799Z,97339.22
2023-01-18T10:22:53.727Z,97336.28
2023-01-18T10:24:12.227Z,97340.09
2023-01-18T10:25:24.136Z,97341.03
2023-01-18T10:26:31.562Z,97338.84
2023-01-18T10:28:08.042Z,97334.88
2023-01-18T10:29:25.087Z,97338.75
2023-01-18T10:30:51.474Z,97343.78
2023-01-18T10:32:05.257Z,97341.03
2023-01-18T10:33:29.007Z,97334.94
2023-01-18T10:34:39.336Z,97339.81
2023-01-18T10:35:47.901Z,97347.59
2023-01-18T10:36:58.757Z,97337.97
2023-01-18T10:38:05.907Z,97347.47
2023-01-18T10:39:41.783Z,97347.59
2023-01-18T10:40:49.495Z,97344.88
2023-01-18T10:41:51.975Z,97338.00
2023-01-18T10:42:59.956Z,97348.94
2023-01-18T10:44:02.401Z,97350.25
2023-01-18T10:45:12.411Z,97358.13
2023-01-18T10:46:16.992Z,97353.31
2023-01-18T10:47:20.608Z,97349.38
2023-01-18T10:48:28.783Z,97354.75
2023-01-18T10:49:42.822Z,97355.16
2023-01-18T10:50:49.466Z,97357.34
2023-01-18T10:51:52.203Z,97360.78
2023-01-18T10:52:54.521Z,97358.88
2023-01-18T10:53:57.619Z,97359.13
2023-01-18T10:55:07.589Z,97357.56
2023-01-18T10:56:09.889Z,97363.88
2023-01-18T10:57:23.047Z,97356.72
2023-01-18T10:58:32.354Z,97360.94
2023-01-18T10:59:39.610Z,97366.75
2023-01-18T11:00:41.920Z,97367.53
2023-01-18T11:01:56.919Z,97365.56
2023-01-18T11:03:01.751Z,97370.44
2023-01-18T11:04:14.675Z,97381.69
2023-01-18T11:05:22.868Z,97375.44
2023-01-18T11:06:26.886Z,97372.19
2023-01-18T11:07:29.804Z,97364.88
2023-01-18T11:08:34.328Z,97379.66
2023-01-18T11:09:56.282Z,97383.19
2023-01-18T11:11:20.376Z,97381.00
2023-01-18T11:12:43.312Z,97372.84
2023-01-18T11:13:49.003Z,97374.44
2023-01-18T11:14:51.594Z,97381.75
2023-01-18T11:16:10.455Z,97374.50
2023-01-18T11:17:12.986Z,97384.31
2023-01-18T11:18:17.522Z,97378.47
2023-01-18T11:19:20.100Z,97383.72
2023-01-18T11:20:34.972Z,97389.63
2023-01-18T11:21:42.964Z,97393.00
2023-01-18T11:23:06.386Z,97383.91
2023-01-18T11:24:15.408Z,97390.34
2023-01-18T11:25:17.792Z,97393.16
2023-01-18T11:26:23.273Z,97386.94
2023-01-18T11:27:25.755Z,97393.44
2023-01-18T11:28:34.683Z,97394.47
2023-01-18T11:29:41.566Z,97399.03
2023-01-18T11:31:06.942Z,97410.06
2023-01-18T11:32:25.487Z,97407.81
2023-01-18T11:33:29.602Z,97402.53
2023-01-18T11:34:35.562Z,97403.09
2023-01-18T11:35:37.979Z,97402.13
2023-01-18T11:36:45.168Z,97407.44
2023-01-18T11:37:48.796Z,97410.38
2023-01-18T11:38:51.054Z,97410.28
2023-01-18T11:39:53.335Z,97411.84
2023-01-18T11:41:05.302Z,97411.72
2023-01-18T11:42:17.129Z,97398.09
2023-01-18T11:43:25.850Z,97409.16
2023-01-18T11:44:34.782Z,97403.97
2023-01-18T11:46:00.235Z,97411.47
2023-01-18T11:47:06.263Z,97406.44
2023-01-18T11:48:30.568Z,97408.22
2023-01-18T11:49:57.015Z,97411.63
2023-01-18T11:51:43.649Z,97409.75
2023-01-18T11:52:54.095Z,97409.84
2023-01-18T11:54:06.917Z,97406.84
2023-01-18T11:55:23.553Z,97414.56
2023-01-18T11:56:45.175Z,97417.13
2023-01-18T11:57:47.437Z,97422.56
2023-01-18T11:58:49.734Z,97417.88
2023-01-18T11:59:51.951Z,97417.88
2023-01-18T12:01:31.537Z,97424.25
2023-01-18T12:03:08.905Z,97429.94
2023-01-18T12:04:47.686Z,97420.22
2023-01-18T12:06:06.543Z,97420.53
2023-01-18T12:07:45.905Z,97423.31
2023-01-18T12:08:56.674Z,97422.91
2023-01-18T12:10:01.566Z,97434.94
2023-01-18T12:11:27.286Z,97434.09
2023-01-18T12:12:44.361Z,97434.50
2023-01-18T12:14:13.504Z,97434.78
2023-01-18T12:15:26.532Z,97441.28
2023-01-18T12:16:44.187Z,97436.16
2023-01-18T12:18:11.992Z,97438.16
2023-01-18T12:19:49.749Z,97441.75
2023-01-18T12:21:11.939Z,97435.38
2023-01-18T12:22:31.059Z,97441.88
2023-01-18T12:24:04.962Z,97447.44
2023-01-18T12:26:10.609Z,97446.03
2023-01-18T12:27:26.193Z,97451.72
2023-01-18T12:28:38.760Z,97446.06
2023-01-18T12:29:55.879Z,97456.56
2023-01-18T12:31:23.902Z,97446.31
2023-01-18T12:32:50.779Z,97458.81
2023-01-18T12:34:02.856Z,97468.16
2023-01-18T12:35:24.151Z,97463.44
2023-01-18T12:37:04.195Z,97464.19
2023-01-18T12:38:31.228Z,97469.84
2023-01-18T12:39:51.841Z,97468.63
2023-01-18T12:41:12.037Z,97468.81
2023-01-18T12:42:24.781Z,97472.72
2023-01-18T12:43:53.252Z,97468.56
2023-01-18T12:45:10.478Z,97480.38
2023-01-18T12:46:43.531Z,97465.38
2023-01-18T12:48:06.454Z,97475.41
2023-01-18T12:49:18.541Z,97472.28
2023-01-18T12:50:27.504Z,97478.56
2023-01-18T12:51:34.172Z,97472.78
2023-01-18T12:52:44.786Z,97483.53
2023-01-18T12:53:55.973Z,97476.09
2023-01-18T12:55:03.900Z,97486.13
2023-01-18T12:56:20.099Z,97485.06
2023-01-18T12:57:24.241Z,97477.06
2023-01-18T12:58:27.229Z,97486.34
2023-01-18T12:59:38.609Z,97481.75
2023-01-18T13:00:47.955Z,97484.66
2023-01-18T13:01:57.505Z,97497.38
2023-01-18T13:02:59.802Z,97494.06
2023-01-18T13:04:08.465Z,97498.53
2023-01-18T13:05:52.970Z,97494.50
2023-01-18T13:07:02.180Z,97493.41
2023-01-18T13:08:10.647Z,97497.94
2023-01-18T13:09:18.644Z,97492.38
2023-01-18T13:10:27.048Z,97484.66
2023-01-18T13:11:41.999Z,97498.75
2023-01-18T13:12:44.938Z,97498.34
2023-01-18T13:13:52.068Z,97494.59
2023-01-18T13:15:06.540Z,97485.75
2023-01-18T13:16:21.585Z,97496.94
2023-01-18T13:17:51.836Z,97500.16
2023-01-18T13:18:56.728Z,97502.75